KALN/ALN METAR and TAF weather

Enter ICAO airport designator
Station Type Date Time Source
KALN METAR 2021/05/14 06:55 UTC NOAA

KALN 140655Z AUTO 00000KT 10SM CLR 04/02 A3034 RMK AO2 T00410022


Station Type Date Time Source
KALN Decoded METAR 2021/05/14 06:55 UTC NOAA

Alton/St. Louis, St. Louis Regional Airport, IL, United States (KALN) 38-54N 090-03W
May 14, 2021 - 02:55 AM EDT / 2021.05.14 0655 UTC
Wind: Calm:0
Visibility: 10 mile(s):0
Sky conditions: clear
Temperature: 39.4 F (4.1 C)
Dew Point: 36.0 F (2.2 C)
Relative Humidity: 87%
Pressure (altimeter): 30.34 in. Hg (1027 hPa)
ob: KALN 140655Z AUTO 00000KT 10SM CLR 04/02 A3034 RMK AO2 T00410022
cycle: 7

Station Type Date Time Source
KALN TAF UTC NOAA

Error!

Example: see airport list